Time;durP1;ratioP1;P1;durP2;ratioP2;P2;SDS_P1;SDS_P2;PMS_P1;PMS_P2;Temp;Humidity;BMP_temperature;BMP_pressure;BME280_temperature;BME280_humidity;BME280_pressure;Samples;Min_cycle;Max_cycle;Signal;HPM_P1;HPM_P2
2021/11/24 00:01:07;;;;;;;27.83;13.98;;;2.60;99.90;;;;;;4993943;28;20058;-73
2021/11/24 00:03:33;;;;;;;25.85;13.82;;;2.60;99.90;;;;;;4993854;28;20037;-74
2021/11/24 00:05:59;;;;;;;26.58;14.35;;;2.70;99.90;;;;;;4995040;28;20037;-73
2021/11/24 00:08:24;;;;;;;29.05;14.60;;;2.60;99.90;;;;;;4995032;28;20101;-74
2021/11/24 00:10:50;;;;;;;30.75;15.88;;;2.60;99.90;;;;;;4995069;28;20026;-74
2021/11/24 00:13:16;;;;;;;30.00;15.02;;;2.60;99.90;;;;;;4994972;28;20026;-73
2021/11/24 00:15:42;;;;;;;32.92;17.25;;;2.60;99.90;;;;;;4994905;28;20030;-73
2021/11/24 00:18:08;;;;;;;35.22;16.10;;;2.60;99.90;;;;;;4993494;28;20033;-74
2021/11/24 00:20:33;;;;;;;33.80;18.58;;;2.60;99.90;;;;;;4993467;28;20027;-73
2021/11/24 00:22:59;;;;;;;36.22;17.15;;;2.60;99.90;;;;;;4994684;28;20169;-73
2021/11/24 00:25:25;;;;;;;34.75;18.10;;;2.60;99.90;;;;;;4986405;28;20033;-74
2021/11/24 00:27:51;;;;;;;36.63;18.67;;;2.60;99.90;;;;;;4989841;28;20101;-74
2021/11/24 00:30:17;;;;;;;51.90;27.52;;;2.60;99.90;;;;;;4994650;28;20031;-73
2021/11/24 00:32:43;;;;;;;39.92;19.30;;;2.60;99.90;;;;;;4984399;28;20030;-74
2021/11/24 00:35:09;;;;;;;42.47;22.85;;;2.60;99.90;;;;;;4994584;28;20499;-73
2021/11/24 00:37:35;;;;;;;60.70;28.25;;;2.60;99.90;;;;;;4994532;28;20018;-74
2021/11/24 00:40:01;;;;;;;57.60;25.15;;;2.60;99.90;;;;;;4994269;28;20507;-75
2021/11/24 00:42:27;;;;;;;46.72;22.58;;;2.60;99.90;;;;;;4994497;28;20026;-73
2021/11/24 00:44:52;;;;;;;48.03;23.67;;;2.60;99.90;;;;;;4994230;28;20034;-73
2021/11/24 00:47:18;;;;;;;50.42;25.88;;;2.60;99.90;;;;;;4994383;28;20029;-73
2021/11/24 00:49:44;;;;;;;49.58;24.90;;;2.60;99.90;;;;;;4994172;28;20023;-73
2021/11/24 00:52:09;;;;;;;52.75;24.50;;;2.60;99.90;;;;;;4994347;28;20077;-73
2021/11/24 00:54:36;;;;;;;46.25;22.70;;;2.60;99.90;;;;;;4994187;28;20023;-73
2021/11/24 00:57:02;;;;;;;48.10;22.58;;;2.60;99.90;;;;;;4992958;28;20117;-73
2021/11/24 00:59:28;;;;;;;45.00;21.63;;;2.60;99.90;;;;;;4993953;28;20034;-73
2021/11/24 01:01:54;;;;;;;46.70;21.08;;;2.50;99.90;;;;;;4992851;28;20027;-73
2021/11/24 01:04:19;;;;;;;52.47;26.70;;;2.60;99.90;;;;;;4993951;28;20046;-73
2021/11/24 01:06:45;;;;;;;46.25;21.33;;;2.60;99.90;;;;;;4994023;28;20081;-73
2021/11/24 01:09:11;;;;;;;40.15;20.15;;;2.60;99.90;;;;;;4993263;28;20152;-73
2021/11/24 01:11:38;;;;;;;45.90;22.05;;;2.60;99.90;;;;;;4993958;28;20030;-74
2021/11/24 01:14:05;;;;;;;49.45;25.67;;;2.60;99.90;;;;;;4993915;28;20369;-73
2021/11/24 01:16:31;;;;;;;43.88;20.85;;;2.60;99.90;;;;;;4994168;28;20019;-73
2021/11/24 01:18:56;;;;;;;46.83;21.42;;;2.60;99.90;;;;;;4976341;28;20022;-74
2021/11/24 01:21:22;;;;;;;42.38;20.17;;;2.60;99.90;;;;;;4976358;28;20492;-73
2021/11/24 01:23:48;;;;;;;40.58;19.42;;;2.60;99.90;;;;;;4976277;28;20081;-73
2021/11/24 01:26:14;;;;;;;41.38;21.45;;;2.60;99.90;;;;;;4993687;28;20488;-73
2021/11/24 01:28:40;;;;;;;33.60;17.00;;;2.60;99.90;;;;;;4993750;28;20076;-73
2021/11/24 01:31:06;;;;;;;28.15;14.10;;;2.60;99.90;;;;;;4993586;28;20029;-73
2021/11/24 01:33:31;;;;;;;29.73;14.70;;;2.50;99.90;;;;;;4993819;28;20030;-74
2021/11/24 01:35:57;;;;;;;25.40;13.85;;;2.50;99.90;;;;;;4993925;28;20035;-73
2021/11/24 01:38:23;;;;;;;23.10;13.20;;;2.50;99.90;;;;;;4993566;28;20026;-73
2021/11/24 01:40:49;;;;;;;28.40;14.88;;;2.50;99.90;;;;;;4976125;28;20392;-73
2021/11/24 01:43:15;;;;;;;31.33;15.43;;;2.50;99.90;;;;;;4993510;28;20030;-74
2021/11/24 01:45:40;;;;;;;30.00;16.27;;;2.50;99.90;;;;;;4976005;28;20030;-74
2021/11/24 01:48:06;;;;;;;24.25;14.00;;;2.50;99.90;;;;;;4976102;28;20033;-74
2021/11/24 01:50:33;;;;;;;28.73;15.20;;;2.50;99.90;;;;;;4976001;28;20034;-73
2021/11/24 01:52:58;;;;;;;29.65;15.18;;;2.50;99.90;;;;;;4975983;28;20042;-73
2021/11/24 01:55:24;;;;;;;30.00;17.23;;;2.50;99.90;;;;;;4993487;28;20507;-73
2021/11/24 01:57:51;;;;;;;26.65;14.23;;;2.50;99.90;;;;;;4975975;28;20029;-74
2021/11/24 02:00:23;;;;;;;26.83;14.15;;;2.50;99.90;;;;;;4993237;28;20030;-73
2021/11/24 02:02:49;;;;;;;22.25;13.90;;;2.50;99.90;;;;;;4993372;28;20019;-73
2021/11/24 02:05:15;;;;;;;24.13;13.75;;;2.50;99.90;;;;;;4993415;28;20047;-73
2021/11/24 02:07:41;;;;;;;28.92;14.70;;;2.50;99.90;;;;;;4993384;28;20023;-74
2021/11/24 02:10:07;;;;;;;29.35;14.13;;;2.50;99.90;;;;;;4993216;28;20054;-73
2021/11/24 02:12:33;;;;;;;29.73;15.88;;;2.50;99.90;;;;;;4993305;28;20065;-74
2021/11/24 02:14:58;;;;;;;25.00;13.55;;;2.50;99.90;;;;;;4993189;28;20074;-73
2021/11/24 02:17:24;;;;;;;34.25;16.08;;;2.50;99.90;;;;;;4993364;28;20034;-73
2021/11/24 02:19:50;;;;;;;30.23;15.70;;;2.50;99.90;;;;;;4993165;28;20026;-73
2021/11/24 02:22:16;;;;;;;37.70;16.70;;;2.50;99.90;;;;;;4979598;28;20019;-73
2021/11/24 02:24:44;;;;;;;28.40;14.45;;;2.50;99.90;;;;;;4979409;28;20030;-73
2021/11/24 02:27:12;;;;;;;28.05;15.50;;;2.50;99.90;;;;;;4979509;28;20029;-73
2021/11/24 02:29:39;;;;;;;30.13;15.65;;;2.50;99.90;;;;;;4996892;28;20031;-73
2021/11/24 02:32:07;;;;;;;32.15;15.95;;;2.50;99.90;;;;;;4996854;28;20492;-74
2021/11/24 02:34:33;;;;;;;34.88;19.25;;;2.50;99.90;;;;;;4996790;28;20037;-73
2021/11/24 02:37:00;;;;;;;36.10;19.15;;;2.60;99.90;;;;;;4979331;28;20031;-73
2021/11/24 02:39:26;;;;;;;34.40;17.88;;;2.50;99.90;;;;;;4996672;28;20383;-73
2021/11/24 02:41:52;;;;;;;34.15;17.75;;;2.50;99.90;;;;;;4996712;28;20026;-74
2021/11/24 02:44:18;;;;;;;31.90;16.02;;;2.50;99.90;;;;;;4996537;28;20559;-73
2021/11/24 02:46:45;;;;;;;36.10;17.77;;;2.60;99.90;;;;;;4996563;28;20018;-73
2021/11/24 02:49:10;;;;;;;39.00;18.98;;;2.50;99.90;;;;;;4996570;28;20109;-73
2021/11/24 02:51:37;;;;;;;34.72;16.33;;;2.50;99.90;;;;;;4996580;28;20456;-73
2021/11/24 02:54:03;;;;;;;32.25;17.20;;;2.50;99.90;;;;;;4978904;28;20037;-73
2021/11/24 02:56:28;;;;;;;31.98;17.48;;;2.50;99.90;;;;;;4978912;28;20105;-74
2021/11/24 02:58:54;;;;;;;37.72;18.92;;;2.50;99.90;;;;;;4996351;28;20027;-73
2021/11/24 03:01:20;;;;;;;37.60;18.83;;;2.50;99.90;;;;;;4978937;28;20065;-73
2021/11/24 03:03:45;;;;;;;32.72;16.42;;;2.50;99.90;;;;;;4996260;28;20388;-73
2021/11/24 03:06:11;;;;;;;32.83;16.42;;;2.50;99.90;;;;;;4996267;28;20080;-73
2021/11/24 03:08:36;;;;;;;31.02;15.73;;;2.50;99.90;;;;;;4996174;28;20531;-73
2021/11/24 03:11:02;;;;;;;34.78;19.63;;;2.40;99.90;;;;;;4996123;28;20026;-73
2021/11/24 03:13:28;;;;;;;35.22;17.20;;;2.40;99.90;;;;;;4996163;28;20040;-73
2021/11/24 03:15:53;;;;;;;39.60;18.00;;;2.40;99.90;;;;;;4978578;28;20113;-73
2021/11/24 03:18:19;;;;;;;40.60;20.65;;;2.50;99.90;;;;;;4978733;28;20025;-74
2021/11/24 03:20:45;;;;;;;43.25;20.65;;;2.50;99.90;;;;;;4978490;28;20026;-73
2021/11/24 03:23:10;;;;;;;45.20;21.25;;;2.50;99.90;;;;;;4995961;28;20038;-73
2021/11/24 03:25:36;;;;;;;41.55;21.40;;;2.50;99.90;;;;;;4995870;28;20037;-73
2021/11/24 03:28:02;;;;;;;50.33;24.10;;;2.50;99.90;;;;;;4995819;28;20015;-74
2021/11/24 03:30:29;;;;;;;50.10;22.70;;;2.50;99.90;;;;;;4995858;28;20077;-74
2021/11/24 03:32:57;;;;;;;51.45;25.20;;;2.50;99.90;;;;;;4994669;28;20511;-74
2021/11/24 03:35:24;;;;;;;54.13;27.23;;;2.40;99.90;;;;;;4978159;28;20045;-73
2021/11/24 03:37:52;;;;;;;53.75;27.15;;;2.40;99.90;;;;;;4995682;28;20111;-73
2021/11/24 03:40:23;;;;;;;65.28;35.88;;;2.40;99.90;;;;;;4995606;28;20487;-73
2021/11/24 03:42:49;;;;;;;64.00;32.22;;;2.40;99.90;;;;;;4995611;28;20464;-73
2021/11/24 03:45:18;;;;;;;58.13;29.05;;;2.40;99.90;;;;;;4995502;28;20022;-73
2021/11/24 03:47:44;;;;;;;54.08;26.55;;;2.40;99.90;;;;;;4995431;28;20026;-74
2021/11/24 03:50:11;;;;;;;54.83;25.20;;;2.40;99.90;;;;;;4995482;28;20145;-74
2021/11/24 03:52:37;;;;;;;48.78;24.63;;;2.40;99.90;;;;;;4995468;28;20027;-73
2021/11/24 03:55:05;;;;;;;49.15;23.25;;;2.40;99.90;;;;;;4995252;28;20041;-73
2021/11/24 03:57:30;;;;;;;49.20;23.52;;;2.40;99.90;;;;;;4995395;28;20034;-73
2021/11/24 03:59:56;;;;;;;52.03;24.60;;;2.40;99.90;;;;;;4995186;28;20034;-73
2021/11/24 04:02:22;;;;;;;53.75;25.88;;;2.40;99.90;;;;;;4995324;28;20022;-74
2021/11/24 04:04:47;;;;;;;52.78;25.27;;;2.30;99.90;;;;;;4995067;28;20034;-73
2021/11/24 04:07:13;;;;;;;52.80;24.85;;;2.30;99.90;;;;;;4977741;28;20387;-74
2021/11/24 04:09:39;;;;;;;57.67;25.92;;;2.30;99.90;;;;;;4995052;28;20026;-73
2021/11/24 04:12:05;;;;;;;64.70;27.55;;;2.40;99.90;;;;;;4994605;28;20026;-74
2021/11/24 04:14:31;;;;;;;109.68;41.38;;;2.40;99.90;;;;;;4995031;28;20476;-73
2021/11/24 04:16:56;;;;;;;156.15;62.38;;;2.40;99.90;;;;;;4977468;28;20065;-74
2021/11/24 04:19:22;;;;;;;96.18;40.92;;;2.30;99.90;;;;;;4994921;28;20018;-73
2021/11/24 04:21:48;;;;;;;81.00;33.97;;;2.40;99.90;;;;;;4994820;28;20054;-74
2021/11/24 04:24:13;;;;;;;77.45;35.15;;;2.40;99.90;;;;;;4977231;28;20093;-73
2021/11/24 04:26:39;;;;;;;101.97;41.53;;;2.30;99.90;;;;;;4977314;28;20539;-74
2021/11/24 04:29:05;;;;;;;87.85;37.70;;;2.40;99.90;;;;;;4994690;28;20054;-73
2021/11/24 04:31:30;;;;;;;91.10;39.58;;;2.40;99.90;;;;;;4994711;28;20480;-73
2021/11/24 04:33:56;;;;;;;77.22;34.53;;;2.40;99.90;;;;;;4994568;28;20022;-73
2021/11/24 04:36:22;;;;;;;95.22;38.15;;;2.40;99.90;;;;;;4994494;28;20030;-73
2021/11/24 04:38:48;;;;;;;98.97;37.22;;;2.30;99.90;;;;;;4994531;28;20480;-74
2021/11/24 04:41:13;;;;;;;98.20;41.55;;;2.40;99.90;;;;;;4993213;28;20037;-73
2021/11/24 04:43:44;;;;;;;102.35;43.35;;;2.40;99.90;;;;;;4994123;28;20045;-73
2021/11/24 04:46:09;;;;;;;98.75;44.22;;;2.30;99.90;;;;;;4991876;28;20109;-73
2021/11/24 04:48:37;;;;;;;99.32;41.28;;;2.40;99.90;;;;;;4994431;28;20105;-74
2021/11/24 04:51:03;;;;;;;96.55;44.08;;;2.40;99.90;;;;;;4994231;28;20487;-74
2021/11/24 04:53:28;;;;;;;97.20;41.90;;;2.30;99.90;;;;;;4986354;28;20023;-74
2021/11/24 04:55:54;;;;;;;103.85;45.42;;;2.40;99.90;;;;;;4994158;28;20379;-73
2021/11/24 04:58:20;;;;;;;93.68;41.38;;;2.40;99.90;;;;;;4994188;28;20117;-73
2021/11/24 05:00:45;;;;;;;78.10;38.42;;;2.40;99.90;;;;;;4992836;28;20100;-74
2021/11/24 05:03:11;;;;;;;89.68;41.38;;;2.30;99.90;;;;;;4994125;28;20034;-73
2021/11/24 05:05:37;;;;;;;75.28;34.45;;;2.30;99.90;;;;;;4994132;28;20032;-73
2021/11/24 05:08:02;;;;;;;79.22;37.25;;;2.30;99.90;;;;;;4993923;28;20403;-73
2021/11/24 05:10:28;;;;;;;76.25;39.05;;;2.30;99.90;;;;;;4994019;28;20027;-74
2021/11/24 05:12:54;;;;;;;71.00;34.65;;;2.30;99.90;;;;;;4994010;28;20022;-74
2021/11/24 05:15:26;;;;;;;77.38;36.53;;;2.30;99.90;;;;;;4993923;28;20117;-73
2021/11/24 05:17:55;;;;;;;73.95;34.10;;;2.30;99.90;;;;;;4994006;28;20029;-73
2021/11/24 05:20:24;;;;;;;75.50;35.85;;;2.20;99.90;;;;;;4992472;28;20484;-73
2021/11/24 05:22:50;;;;;;;80.93;35.85;;;2.20;99.90;;;;;;4993768;28;20029;-73
2021/11/24 05:25:16;;;;;;;77.72;37.97;;;2.20;99.90;;;;;;4993783;28;20038;-73
2021/11/24 05:27:42;;;;;;;85.20;37.83;;;2.20;99.90;;;;;;4993793;28;20492;-74
2021/11/24 05:30:09;;;;;;;73.80;34.25;;;2.20;99.90;;;;;;4993608;28;20023;-73
2021/11/24 05:32:36;;;;;;;85.13;38.20;;;2.20;99.90;;;;;;4984540;28;20146;-73
2021/11/24 05:35:03;;;;;;;80.15;36.97;;;2.10;99.90;;;;;;4993433;28;20034;-73
2021/11/24 05:37:29;;;;;;;75.90;36.17;;;2.20;99.90;;;;;;4976083;28;20034;-73
2021/11/24 05:39:54;;;;;;;78.35;34.58;;;2.10;99.90;;;;;;4993517;28;20030;-73
2021/11/24 05:42:20;;;;;;;71.70;34.47;;;2.10;99.90;;;;;;4976184;28;20026;-75
2021/11/24 05:44:48;;;;;;;72.45;33.47;;;2.10;99.90;;;;;;4975913;28;20045;-73
2021/11/24 05:49:59;;;;;;;77.25;35.15;;;2.10;99.90;;;;;;4993375;28;20047;-73
2021/11/24 05:52:24;;;;;;;74.57;35.13;;;2.00;99.90;;;;;;4993577;28;20030;-73
2021/11/24 05:54:50;;;;;;;75.82;37.85;;;2.10;99.90;;;;;;4993428;28;20030;-73
2021/11/24 05:57:16;;;;;;;77.97;38.67;;;2.00;99.90;;;;;;4997580;28;20018;-73
2021/11/24 05:59:42;;;;;;;69.53;35.13;;;2.10;99.90;;;;;;4997427;28;20058;-73
2021/11/24 06:02:08;;;;;;;77.53;39.15;;;2.10;99.90;;;;;;4979920;28;20053;-74
2021/11/24 06:04:33;;;;;;;78.72;37.70;;;2.10;99.90;;;;;;4979812;28;20491;-73
2021/11/24 06:06:59;;;;;;;83.63;39.97;;;2.00;99.90;;;;;;4997131;28;20084;-74
2021/11/24 06:09:25;;;;;;;71.45;35.58;;;2.10;99.90;;;;;;4996823;28;20030;-74
2021/11/24 06:11:50;;;;;;;70.72;35.55;;;2.00;99.90;;;;;;4996852;28;20018;-74
2021/11/24 06:14:16;;;;;;;69.15;33.92;;;2.00;99.90;;;;;;4992189;28;20065;-73
2021/11/24 06:16:41;;;;;;;68.10;35.63;;;2.00;99.90;;;;;;4994372;28;20037;-74
2021/11/24 06:19:07;;;;;;;73.53;36.50;;;2.00;99.90;;;;;;4995448;28;20029;-74
2021/11/24 06:21:33;;;;;;;80.40;37.83;;;2.00;99.90;;;;;;4984839;28;20044;-74
2021/11/24 06:23:58;;;;;;;70.95;38.17;;;2.00;99.90;;;;;;4995257;28;20038;-74
2021/11/24 06:26:24;;;;;;;65.68;33.30;;;2.00;99.90;;;;;;4995037;28;20457;-74
2021/11/24 06:28:50;;;;;;;75.60;35.53;;;2.00;99.90;;;;;;4994192;28;20030;-74
2021/11/24 06:31:16;;;;;;;67.70;34.40;;;2.10;99.90;;;;;;4982394;28;20472;-74
2021/11/24 06:33:42;;;;;;;71.30;36.80;;;2.10;99.90;;;;;;4994888;28;20011;-74
2021/11/24 06:36:08;;;;;;;82.82;41.33;;;2.10;99.90;;;;;;4983098;28;20038;-74
2021/11/24 06:38:34;;;;;;;73.00;35.97;;;2.10;99.90;;;;;;4981142;28;20100;-74
2021/11/24 06:41:01;;;;;;;68.45;35.60;;;2.00;99.90;;;;;;4994829;28;20043;-74
2021/11/24 06:43:26;;;;;;;74.13;37.00;;;2.00;99.90;;;;;;4988069;28;20495;-74
2021/11/24 06:45:52;;;;;;;79.53;41.67;;;2.10;99.90;;;;;;4995309;28;20160;-74
2021/11/24 06:48:18;;;;;;;73.50;34.08;;;2.00;99.90;;;;;;4995440;28;20026;-75
2021/11/24 06:50:43;;;;;;;74.35;38.33;;;2.00;99.90;;;;;;4994495;28;20533;-74
2021/11/24 06:53:09;;;;;;;73.28;36.88;;;2.00;99.90;;;;;;4986709;28;20118;-74
2021/11/24 06:55:35;;;;;;;74.05;36.67;;;2.10;99.90;;;;;;4995614;28;20022;-74
2021/11/24 06:58:01;;;;;;;73.90;38.10;;;2.10;99.90;;;;;;4995210;28;20506;-74
2021/11/24 07:00:27;;;;;;;70.82;33.70;;;2.10;99.90;;;;;;4980670;28;20030;-74
2021/11/24 07:02:53;;;;;;;73.85;36.72;;;2.10;99.90;;;;;;4994522;28;20049;-74
2021/11/24 07:05:19;;;;;;;70.40;35.92;;;2.10;99.90;;;;;;4994055;28;20026;-74
2021/11/24 07:07:44;;;;;;;77.95;37.65;;;2.10;99.90;;;;;;4969276;28;20483;-75
2021/11/24 07:10:10;;;;;;;73.63;38.00;;;2.10;99.90;;;;;;4981476;28;20023;-74
2021/11/24 07:12:36;;;;;;;71.60;37.55;;;2.10;99.90;;;;;;4991473;28;20022;-74
2021/11/24 07:15:02;;;;;;;79.57;43.53;;;2.10;99.90;;;;;;4990855;28;20027;-74
2021/11/24 07:17:28;;;;;;;71.53;37.67;;;2.20;99.90;;;;;;4991588;28;20031;-74
2021/11/24 07:19:54;;;;;;;74.15;37.75;;;2.20;99.90;;;;;;4988627;28;20030;-74
2021/11/24 07:22:19;;;;;;;78.90;39.45;;;2.20;99.90;;;;;;4992842;28;20023;-75
2021/11/24 07:24:45;;;;;;;70.05;35.83;;;2.30;99.90;;;;;;4992288;28;20412;-74
2021/11/24 07:27:11;;;;;;;75.47;36.10;;;2.30;99.90;;;;;;4992474;28;20507;-74
2021/11/24 07:29:36;;;;;;;77.18;40.53;;;2.40;99.90;;;;;;4977875;28;20029;-74
2021/11/24 07:32:02;;;;;;;78.75;40.60;;;2.40;99.90;;;;;;4992374;28;20455;-75
2021/11/24 07:34:29;;;;;;;80.10;38.17;;;2.40;99.90;;;;;;4981100;28;20030;-73
2021/11/24 07:36:56;;;;;;;72.07;36.08;;;2.50;99.90;;;;;;4990287;28;20023;-74
2021/11/24 07:39:22;;;;;;;76.95;37.60;;;2.50;99.90;;;;;;4980377;28;20038;-74
2021/11/24 07:41:48;;;;;;;71.85;37.65;;;2.50;99.90;;;;;;4990162;28;20495;-75
2021/11/24 07:44:13;;;;;;;74.70;37.85;;;2.50;99.90;;;;;;4990930;28;20046;-74
2021/11/24 07:46:39;;;;;;;73.72;37.00;;;2.50;99.90;;;;;;4992255;28;20026;-74
2021/11/24 07:49:05;;;;;;;75.88;39.72;;;2.50;99.90;;;;;;4977683;28;20025;-74
2021/11/24 07:51:30;;;;;;;70.25;36.67;;;2.60;99.90;;;;;;4992331;28;20034;-75
2021/11/24 07:53:56;;;;;;;77.15;38.05;;;2.50;99.90;;;;;;4990924;28;20396;-74
2021/11/24 07:56:23;;;;;;;78.18;37.13;;;2.60;99.90;;;;;;4990417;28;20066;-74
2021/11/24 07:58:48;;;;;;;74.10;38.58;;;2.60;99.90;;;;;;4990214;28;20387;-74
2021/11/24 08:01:14;;;;;;;70.25;35.72;;;2.60;99.90;;;;;;4981284;28;20034;-74
2021/11/24 08:03:41;;;;;;;61.38;32.53;;;2.60;99.90;;;;;;4990696;28;20048;-74
2021/11/24 08:06:07;;;;;;;87.20;41.10;;;2.70;99.90;;;;;;4988681;28;20027;-74
2021/11/24 08:08:32;;;;;;;78.32;39.13;;;2.70;99.90;;;;;;4990652;28;20473;-74
2021/11/24 08:10:59;;;;;;;77.78;39.28;;;2.70;99.90;;;;;;4991136;28;20033;-74
2021/11/24 08:13:25;;;;;;;78.13;39.25;;;2.70;99.90;;;;;;4988600;28;20105;-74
2021/11/24 08:15:51;;;;;;;74.90;37.35;;;2.80;99.90;;;;;;4991358;28;20487;-74
2021/11/24 08:18:16;;;;;;;69.82;37.13;;;2.80;99.90;;;;;;4990892;28;20030;-74
2021/11/24 08:20:43;;;;;;;68.40;35.33;;;2.90;99.90;;;;;;4991257;28;20026;-74
2021/11/24 08:23:09;;;;;;;68.47;34.53;;;2.90;99.90;;;;;;4989956;28;20030;-74
2021/11/24 08:25:35;;;;;;;68.90;34.47;;;2.90;99.90;;;;;;4977816;28;20018;-74
2021/11/24 08:28:00;;;;;;;60.60;30.95;;;3.00;99.90;;;;;;4990862;28;20030;-75
2021/11/24 08:30:27;;;;;;;57.85;30.25;;;3.00;99.90;;;;;;4981100;28;20387;-74
2021/11/24 08:32:53;;;;;;;62.38;31.98;;;3.00;99.90;;;;;;4989466;28;20022;-74
2021/11/24 08:35:20;;;;;;;58.17;32.47;;;3.00;99.90;;;;;;4990953;28;20037;-74
2021/11/24 08:37:46;;;;;;;56.95;30.77;;;3.00;99.90;;;;;;4991506;28;20045;-75
2021/11/24 08:40:13;;;;;;;74.55;33.67;;;3.10;99.90;;;;;;4981034;28;20064;-74
2021/11/24 08:42:39;;;;;;;66.47;31.67;;;3.20;99.90;;;;;;4990245;28;20015;-74
2021/11/24 08:45:07;;;;;;;72.30;37.58;;;3.10;99.90;;;;;;4978732;28;20407;-74
2021/11/24 08:47:33;;;;;;;62.22;33.53;;;3.20;99.90;;;;;;4976353;28;20491;-74
2021/11/24 08:49:59;;;;;;;68.78;32.65;;;3.20;99.90;;;;;;4988283;28;20031;-74
2021/11/24 08:52:25;;;;;;;51.65;30.30;;;3.30;99.90;;;;;;4988978;28;20034;-74
2021/11/24 08:54:51;;;;;;;58.03;31.13;;;3.30;99.90;;;;;;4977848;28;20113;-74
2021/11/24 08:57:17;;;;;;;60.72;30.58;;;3.30;99.90;;;;;;4988757;28;20538;-75
2021/11/24 08:59:43;;;;;;;56.17;28.90;;;3.40;99.90;;;;;;4988608;28;20037;-74
2021/11/24 09:02:09;;;;;;;59.67;28.02;;;3.30;99.90;;;;;;4988750;28;20298;-73
2021/11/24 09:04:35;;;;;;;52.58;27.30;;;3.40;99.90;;;;;;4990705;28;20040;-74
2021/11/24 09:07:01;;;;;;;49.60;26.00;;;3.40;99.90;;;;;;4990621;28;20027;-74
2021/11/24 09:09:26;;;;;;;54.75;27.00;;;3.40;99.90;;;;;;4990770;28;20045;-74
2021/11/24 09:11:52;;;;;;;51.30;26.88;;;3.50;99.90;;;;;;4980084;28;20027;-75
2021/11/24 09:14:19;;;;;;;53.00;26.45;;;3.50;99.90;;;;;;4980542;28;20058;-74
2021/11/24 09:16:45;;;;;;;54.83;29.08;;;3.50;99.90;;;;;;4990960;28;20014;-74
2021/11/24 09:19:11;;;;;;;53.00;27.50;;;3.60;99.90;;;;;;4980168;28;20026;-74
2021/11/24 09:21:36;;;;;;;46.38;24.80;;;3.70;99.90;;;;;;4990431;28;20498;-74
2021/11/24 09:24:11;;;;;;;53.35;28.08;;;3.70;99.90;;;;;;4990508;28;20484;-74
2021/11/24 09:29:06;;;;;;;49.13;23.98;;;3.80;99.90;;;;;;4990516;28;20431;-73
2021/11/24 09:31:32;;;;;;;39.67;23.55;;;3.80;99.90;;;;;;4980654;28;20026;-74
2021/11/24 09:33:59;;;;;;;44.70;24.27;;;3.90;99.90;;;;;;4990778;28;20045;-74
2021/11/24 09:36:25;;;;;;;51.42;25.05;;;3.90;99.90;;;;;;4990720;28;20042;-74
2021/11/24 09:38:50;;;;;;;40.85;22.63;;;4.00;99.90;;;;;;4990481;28;20022;-74
2021/11/24 09:41:20;;;;;;;47.83;23.45;;;3.90;99.90;;;;;;4990491;28;20034;-74
2021/11/24 09:43:49;;;;;;;35.58;21.60;;;3.90;99.90;;;;;;4990683;28;20037;-74
2021/11/24 09:46:16;;;;;;;44.50;24.00;;;4.00;99.90;;;;;;4990544;28;20082;-74
2021/11/24 09:48:44;;;;;;;40.70;22.42;;;4.10;99.90;;;;;;4988994;28;20476;-74
2021/11/24 09:51:11;;;;;;;45.38;20.92;;;4.00;99.90;;;;;;4990946;28;20026;-74
2021/11/24 09:53:39;;;;;;;40.20;21.88;;;4.10;99.90;;;;;;4979544;28;20053;-73
2021/11/24 09:56:06;;;;;;;41.28;22.77;;;4.10;99.90;;;;;;4991059;28;20480;-74
2021/11/24 09:58:32;;;;;;;38.80;20.17;;;4.10;99.90;;;;;;4988030;28;20026;-74
2021/11/24 10:00:58;;;;;;;42.28;23.45;;;4.10;99.90;;;;;;4978346;28;20027;-74
2021/11/24 10:03:26;;;;;;;36.75;20.70;;;4.10;99.90;;;;;;4992109;28;20039;-74
2021/11/24 10:05:52;;;;;;;38.67;22.08;;;4.10;99.90;;;;;;4975234;28;20026;-74
2021/11/24 10:08:18;;;;;;;41.95;20.23;;;4.10;99.90;;;;;;4976036;28;20026;-74
2021/11/24 10:10:45;;;;;;;43.83;22.90;;;4.10;99.90;;;;;;4992677;28;20487;-74
2021/11/24 10:13:11;;;;;;;38.13;21.42;;;4.10;99.90;;;;;;4992826;28;20113;-75
2021/11/24 10:15:56;;;;;;;41.15;23.58;;;4.20;99.90;;;;;;4993147;28;20026;-74
2021/11/24 10:18:23;;;;;;;40.35;21.90;;;4.20;99.90;;;;;;4993262;28;20026;-74
2021/11/24 10:21:11;;;;;;;38.22;22.40;;;4.30;99.90;;;;;;4993184;28;20065;-74
2021/11/24 10:23:42;;;;;;;38.17;20.40;;;4.40;99.90;;;;;;4992437;28;20034;-74
2021/11/24 10:26:20;;;;;;;35.63;19.50;;;4.40;99.90;;;;;;4991199;28;20030;-74
2021/11/24 10:28:56;;;;;;;33.05;18.92;;;4.30;99.90;;;;;;4991119;28;20037;-74
2021/11/24 10:31:23;;;;;;;38.65;21.63;;;4.40;99.90;;;;;;4991042;28;20031;-74
2021/11/24 10:33:49;;;;;;;40.72;21.95;;;4.50;99.90;;;;;;4991204;28;20014;-74
2021/11/24 10:36:15;;;;;;;40.00;22.90;;;4.50;99.90;;;;;;4977849;28;20522;-74
2021/11/24 10:38:47;;;;;;;44.80;22.45;;;4.60;99.90;;;;;;4987415;28;20476;-74
2021/11/24 10:41:29;;;;;;;40.55;22.08;;;4.60;99.90;;;;;;4990579;28;20030;-74
2021/11/24 10:43:54;;;;;;;52.22;28.58;;;4.50;99.90;;;;;;4993350;28;20031;-74
2021/11/24 10:46:25;;;;;;;48.58;24.75;;;4.50;99.90;;;;;;4975338;28;20373;-74
2021/11/24 10:49:03;;;;;;;37.30;20.73;;;4.40;99.90;;;;;;4991855;28;20468;-74
2021/11/24 10:51:40;;;;;;;80.13;40.25;;;4.50;99.90;;;;;;4989508;28;20033;-74
2021/11/24 10:54:17;;;;;;;103.53;51.95;;;4.50;99.90;;;;;;4978822;28;20194;-74
2021/11/24 10:57:03;;;;;;;135.88;64.70;;;4.60;99.90;;;;;;4986787;28;20054;-74
2021/11/24 10:59:31;;;;;;;112.55;50.17;;;4.60;99.90;;;;;;4989714;28;20118;-74
2021/11/24 11:02:16;;;;;;;42.20;22.42;;;4.60;99.90;;;;;;4990474;28;20014;-74
2021/11/24 11:05:00;;;;;;;39.33;19.88;;;4.60;99.90;;;;;;4992855;28;20078;-74
2021/11/24 11:07:27;;;;;;;116.55;55.03;;;4.60;99.90;;;;;;4995066;28;20077;-74
2021/11/24 11:10:06;;;;;;;256.27;116.55;;;4.60;99.90;;;;;;4992699;28;20046;-74
2021/11/24 11:12:33;;;;;;;97.50;45.03;;;4.60;99.90;;;;;;4995044;28;20546;-74
2021/11/24 11:15:22;;;;;;;87.57;37.58;;;4.70;99.90;;;;;;4994999;28;20034;-74
2021/11/24 11:18:10;;;;;;;55.03;22.77;;;4.80;99.90;;;;;;4993813;28;20038;-74
2021/11/24 11:20:47;;;;;;;38.42;19.02;;;4.80;99.90;;;;;;4995967;28;20018;-74
2021/11/24 11:23:29;;;;;;;29.98;16.65;;;4.80;99.90;;;;;;4996024;28;20098;-74
2021/11/24 11:26:17;;;;;;;26.63;15.23;;;4.80;99.90;;;;;;4995866;28;20072;-74
2021/11/24 11:28:56;;;;;;;33.28;17.48;;;4.90;99.90;;;;;;4976489;28;20111;-74
2021/11/24 11:31:24;;;;;;;29.23;17.05;;;4.90;99.90;;;;;;4994013;28;20031;-75
2021/11/24 11:33:59;;;;;;;32.05;17.45;;;4.90;99.90;;;;;;4978041;28;20076;-74
2021/11/24 11:36:25;;;;;;;35.40;18.92;;;4.80;99.90;;;;;;4995577;28;20030;-74
2021/11/24 11:38:54;;;;;;;33.65;18.38;;;4.90;99.90;;;;;;4977720;28;20369;-75
2021/11/24 11:41:31;;;;;;;44.30;20.13;;;4.90;99.90;;;;;;4978069;28;20022;-73
2021/11/24 11:43:57;;;;;;;25.02;14.93;;;4.90;99.90;;;;;;4993283;28;20049;-74
2021/11/24 11:46:29;;;;;;;22.80;12.93;;;4.90;99.90;;;;;;4991224;28;20029;-74
2021/11/24 11:48:57;;;;;;;31.80;19.83;;;4.90;99.90;;;;;;4983376;28;20026;-74
2021/11/24 11:51:32;;;;;;;27.40;15.10;;;4.90;99.90;;;;;;4983263;28;20030;-74
2021/11/24 11:53:59;;;;;;;32.22;15.65;;;4.90;99.90;;;;;;4991994;28;20569;-74
2021/11/24 11:56:34;;;;;;;27.13;13.50;;;4.80;99.90;;;;;;4994007;28;20113;-74
2021/11/24 11:59:05;;;;;;;22.25;14.48;;;4.80;99.90;;;;;;4991315;28;20515;-74
2021/11/24 12:01:54;;;;;;;22.70;13.63;;;4.70;99.90;;;;;;4979806;28;20022;-74
2021/11/24 12:04:28;;;;;;;28.95;16.42;;;4.70;99.90;;;;;;4989066;28;20041;-74
2021/11/24 12:06:54;;;;;;;35.60;16.17;;;4.80;99.90;;;;;;4979723;28;20022;-74
2021/11/24 12:09:33;;;;;;;34.35;13.30;;;4.80;99.90;;;;;;4980925;28;21690;-74
2021/11/24 12:12:05;;;;;;;31.02;14.43;;;4.80;99.90;;;;;;4990123;28;20018;-74
2021/11/24 12:14:50;;;;;;;133.05;61.30;;;4.80;99.90;;;;;;4987807;28;20368;-74
2021/11/24 12:20:01;;;;;;;54.45;26.77;;;4.70;99.90;;;;;;4989100;28;20472;-74
2021/11/24 12:22:52;;;;;;;31.00;14.18;;;4.70;99.90;;;;;;4990660;28;20039;-74
2021/11/24 12:25:18;;;;;;;31.85;15.00;;;4.60;99.90;;;;;;4990522;28;20109;-74
2021/11/24 12:28:01;;;;;;;45.30;20.02;;;4.60;99.90;;;;;;4990089;28;20464;-74
2021/11/24 12:30:39;;;;;;;54.58;22.70;;;4.50;99.90;;;;;;4979240;28;20543;-74
2021/11/24 12:33:08;;;;;;;45.13;18.42;;;4.40;99.90;;;;;;4989574;28;20142;-74
2021/11/24 12:35:36;;;;;;;63.38;24.38;;;4.40;99.90;;;;;;4990105;28;20034;-74
2021/11/24 12:38:03;;;;;;;70.63;24.10;;;4.40;99.90;;;;;;4992127;28;20022;-74
2021/11/24 12:40:34;;;;;;;56.92;23.08;;;4.50;99.90;;;;;;4992783;28;20033;-74
2021/11/24 12:43:03;;;;;;;46.60;20.13;;;4.50;99.90;;;;;;4991380;28;20442;-74
2021/11/24 12:45:29;;;;;;;59.20;22.70;;;4.40;99.90;;;;;;4989466;28;20480;-74